Latest Weather Observations for Armidale Airport

IDN60801

Issued at 7:35 pm EDT Tuesday 21 October 2014 (issued every 30 minutes, with the page automatically refreshed every 10 minutes)

About weather observations | Map of weather stations | Latest weather observations for NSW | Other Formats
Station Details ID: 056238 Name: ARMIDALE AIRPORT AWS Lat: -30.53 Lon: 151.62 Height: 1079.0 m
Data from the previous 72 hours. | See also: Recent months for locations in New South Wales
Date/Time
EDT
Temp
°C
App
Temp
°C
Dew
Point
Rel
Hum
%
Delta-T
°C
Wind Press
QNH
hPa
Press
MSL
hPa
Rain
since 9 am
mm
Dir
 
Spd
km/h
Gust
km/h
Spd
kts
Gust
kts
21/07:30pm 10.3 5.8 7.0 80 1.7 E 20 30 11 16 1029.0 1026.1 0.0
21/07:00pm 11.1 6.2 7.0 76 2.1 E 22 30 12 16 1028.9 1026.0 0.0
21/06:30pm 12.3 7.5 7.2 71 2.6 E 22 30 12 16 1028.6 1025.7 0.0
21/06:00pm 13.6 9.3 7.2 65 3.3 ESE 19 26 10 14 1028.4 1025.4 0.0
21/05:30pm 14.6 10.2 7.4 62 3.8 ESE 20 28 11 15 1028.2 1025.3 0.0
21/05:00pm 15.4 11.1 7.7 60 4.0 E 20 28 11 15 1028.2 1025.3 0.0
21/04:30pm 15.9 11.6 7.7 58 4.3 E 20 32 11 17 1028.2 1025.3 0.0
21/04:00pm 16.3 12.1 7.5 56 4.6 E 19 26 10 14 1028.4 1025.4 0.0
21/03:30pm 16.6 12.7 8.8 60 4.2 E 19 26 10 14 1028.5 1025.6 0.0
21/03:00pm 15.8 11.6 7.6 58 4.3 ESE 19 28 10 15 1028.8 1025.9 0.0
21/02:30pm 15.6 11.0 8.1 61 4.0 ESE 22 32 12 17 1029.2 1026.3 0.0
21/02:00pm 15.6 11.0 8.1 61 4.0 ESE 22 30 12 16 1029.6 1026.7 0.0
21/01:30pm 15.7 10.7 8.2 61 4.0 E 24 32 13 17 1029.8 1026.9 0.0
21/01:00pm 14.8 9.8 8.1 64 3.5 E 24 32 13 17 1030.2 1027.4 0.0
21/12:30pm 13.8 8.7 7.6 66 3.2 ENE 24 33 13 18 1030.7 1027.8 0.0
21/12:00pm 13.1 8.7 7.3 68 3.0 E 20 32 11 17 1030.9 1028.0 0.0
21/11:30am 13.0 8.7 7.7 70 2.8 E 20 28 11 15 1031.0 1028.2 0.0
21/11:00am 12.6 7.6 7.9 73 2.4 E 24 33 13 18 1031.0 1028.2 0.0
21/10:33am 12.7 7.6 7.8 72 2.6 E 24 35 13 19 1030.8 1027.9 0.0
21/10:30am 12.8 7.3 7.7 71 2.7 E 26 39 14 21 1030.8 1027.9 0.0
21/10:00am 11.8 6.9 8.3 79 1.8 E 24 33 13 18 1030.7 1027.8 0.0
21/09:30am 11.8 6.2 8.6 81 1.7 E 28 35 15 19 1030.6 1027.7 0.0
21/09:00am 10.9 5.2 8.5 85 1.2 E 28 35 15 19 1030.5 1027.6 0.0
21/08:30am 10.3 5.1 8.7 90 0.8 E 26 39 14 21 1030.1 1027.3 0.0
21/08:00am 10.1 4.9 9.0 93 0.6 E 26 35 14 19 1029.9 1027.0 0.0
21/07:30am 10.1 4.9 9.0 93 0.6 E 26 35 14 19 1029.7 1026.8 0.0
21/07:00am 9.9 5.2 9.3 96 0.3 E 24 33 13 18 1029.4 1026.5 0.0
21/06:30am 9.8 5.2 9.5 98 0.2 E 24 33 13 18 1029.0 1026.1 0.0
21/06:00am 10.0 4.1 8.9 93 0.6 E 30 37 16 20 1028.6 1025.7 0.0
21/05:30am 10.1 4.2 9.0 93 0.6 E 30 39 16 21 1028.5 1025.6 0.0
21/05:00am 10.3 4.9 9.5 95 0.4 E 28 35 15 19 1028.2 1025.3 0.0
21/04:30am 10.4 5.5 9.8 96 0.3 E 26 35 14 19 1028.2 1025.3 0.0
21/04:00am 10.5 5.7 10.2 98 0.2 E 26 35 14 19 1028.2 1025.3 0.0
21/03:30am 10.9 6.0 10.0 94 0.5 E 26 33 14 18 1028.2 1025.3 0.0
21/03:00am 11.0 5.8 10.2 95 0.4 E 28 33 15 18 1028.4 1025.4 0.0
21/02:30am 11.3 6.3 9.7 90 0.9 E 26 33 14 18 1028.7 1025.8 0.0
21/02:00am 11.6 6.9 9.2 85 1.3 E 24 35 13 19 1028.9 1026.0 0.0
21/01:35am 11.6 6.1 9.2 85 1.3 E 28 39 15 21 1029.1 1026.2 0.0
21/01:30am 11.7 6.2 9.1 84 1.4 E 28 39 15 21 1029.2 1026.3 0.0
21/01:00am 11.7 6.3 9.4 86 1.2 E 28 35 15 19 1029.5 1026.6 0.0
21/12:41am 11.7 6.3 9.4 86 1.2 E 28 35 15 19 1029.7 1026.8 0.0
21/12:30am 11.7 7.1 9.6 87 1.1 E 24 35 13 19 1029.7 1026.8 0.0
21/12:00am 11.8 7.6 9.9 88 1.0 E 22 28 12 15 1029.9 1027.0 0.0
 
Date/Time
EDT
Temp
°C
App
Temp
°C
Dew
Point
Rel
Hum
%
Delta-T
°C
Wind Press
QNH
hPa
Press
MSL
hPa
Rain
since 9 am
mm
Dir
 
Spd
km/h
Gust
km/h
Spd
kts
Gust
kts
20/11:30pm 11.9 7.8 10.1 89 1.0 E 22 30 12 16 1030.1 1027.3 0.0
20/11:00pm 11.9 7.3 9.5 85 1.3 E 24 35 13 19 1030.4 1027.5 0.0
20/10:30pm 12.1 7.1 9.5 84 1.4 E 26 35 14 19 1030.4 1027.5 0.0
20/10:00pm 12.3 6.9 9.5 83 1.5 E 28 35 15 19 1030.2 1027.4 0.0
20/09:34pm 12.7 7.4 9.7 82 1.6 E 28 39 15 21 1030.2 1027.4 0.0
20/09:30pm 12.8 7.5 10.0 83 1.5 E 28 39 15 21 1030.1 1027.3 0.0
20/09:00pm 13.2 8.0 10.2 82 1.6 E 28 41 15 22 1029.7 1026.8 0.0
20/08:30pm 13.8 8.6 10.4 80 1.9 E 28 37 15 20 1029.1 1026.2 0.0
20/08:00pm 14.1 10.1 10.3 78 2.1 SE 22 28 12 15 1028.7 1025.8 0.0
20/07:30pm 14.6 10.5 10.2 75 2.4 SE 22 28 12 15 1028.2 1025.3 0.0
20/07:00pm 16.0 11.6 10.3 69 3.2 SE 24 35 13 19 1027.7 1024.8 0.0
20/06:30pm 17.7 12.9 10.3 62 4.2 SE 26 39 14 21 1027.0 1024.1 0.0
20/06:00pm 19.5 14.4 10.5 56 5.1 ESE 28 39 15 21 1026.6 1023.6 0.0
20/05:30pm 21.1 15.9 10.3 50 6.2 ESE 28 43 15 23 1026.1 1023.2 0.0
20/05:00pm 23.2 18.3 8.5 39 8.2 ESE 24 37 13 20 1025.8 1022.8 0.0
20/04:30pm 23.8 18.6 7.4 35 9.0 ESE 24 33 13 18 1025.5 1022.5 0.0
20/04:00pm 25.4 22.4 6.1 29 10.4 SE 11 20 6 11 1025.4 1022.4 0.0
20/03:30pm 24.7 19.7 4.5 27 10.6 E 20 30 11 16 1025.6 1022.6 0.0
20/03:00pm 24.9 20.1 4.6 27 10.7 SE 19 26 10 14 1025.8 1022.8 0.0
20/02:30pm 24.9 19.9 4.6 27 10.7 E 20 30 11 16 1026.0 1023.1 0.0
20/02:00pm 24.8 21.2 5.1 28 10.4 E 13 24 7 13 1026.5 1023.5 0.0
20/01:30pm 25.3 21.8 5.5 28 10.6 E 13 20 7 11 1026.7 1023.7 0.0
20/01:00pm 24.5 20.9 4.8 28 10.4 S 13 26 7 14 1027.1 1024.2 0.0
20/12:30pm 23.3 20.0 2.7 26 10.4 ENE 9 15 5 8 1027.4 1024.4 0.0
20/12:00pm 24.0 20.5 5.4 30 9.9 SSE 13 22 7 12 1027.9 1025.0 0.0
20/11:30am 23.2 18.9 5.1 31 9.5 S 17 26 9 14 1028.2 1025.3 0.0
20/11:00am 21.5 18.2 6.6 38 7.9 WSW 13 22 7 12 1028.5 1025.6 0.0
20/10:30am 20.6 16.7 5.4 37 7.9 WSW 15 20 8 11 1028.7 1025.8 0.0
20/10:00am 20.2 16.1 6.2 40 7.4 WSW 17 24 9 13 1028.8 1025.9 0.0
20/09:30am 19.2 14.8 4.6 38 7.4 W 17 20 9 11 1028.7 1025.8 0.0
20/09:00am 18.7 14.8 5.2 41 6.9 W 15 19 8 10 1028.4 1025.4 0.0
20/08:30am 17.4 13.7 4.4 42 6.5 W 13 15 7 8 1027.9 1025.0 0.0
20/08:00am 15.4 12.2 5.0 50 5.2 W 11 13 6 7 1027.6 1024.6 0.0
20/07:30am 13.2 10.9 5.9 61 3.7 W 7 9 4 5 1027.5 1024.5 0.0
20/07:00am 11.1 8.3 6.8 75 2.2 W 11 13 6 7 1027.4 1024.4 0.0
20/06:30am 10.8 7.7 3.4 60 3.5 W 9 11 5 6 1026.9 1024.0 0.0
20/06:00am 11.5 8.7 3.0 56 3.9 W 7 9 4 5 1026.6 1023.6 0.0
20/05:30am 11.0 8.2 3.1 58 3.7 W 7 9 4 5 1026.2 1023.3 0.0
20/05:00am 10.4 7.1 2.7 59 3.5 NW 9 9 5 5 1025.7 1022.7 0.0
20/04:30am 11.3 8.5 3.1 57 3.8 W 7 7 4 4 1026.1 1023.2 0.0
20/04:00am 11.2 8.6 3.3 58 3.7 WNW 6 7 3 4 1025.9 1022.9 0.0
20/03:30am 11.4 8.8 4.2 61 3.4 WNW 7 7 4 4 1026.1 1023.2 0.0
20/03:00am 10.0 8.2 5.6 74 2.1 WSW 4 7 2 4 1026.0 1023.1 0.0
20/02:30am 10.5 9.7 6.5 76 2.0 CALM 0 0 0 0 1026.6 1023.6 0.0
20/02:00am 9.3 8.0 3.9 69 2.5 CALM 0 0 0 0 1026.9 1024.0 0.0
20/01:30am 10.6 9.4 4.7 67 2.8 CALM 0 0 0 0 1027.2 1024.3 0.0
20/01:00am 11.4 10.2 4.6 63 3.3 CALM 0 0 0 0 1027.4 1024.4 0.0
20/12:30am 11.3 8.8 3.8 60 3.6 NE 6 7 3 4 1027.6 1024.6 0.0
20/12:00am 11.3 8.9 4.1 61 3.4 ENE 6 7 3 4 1027.9 1025.0 0.0
 
Date/Time
EDT
Temp
°C
App
Temp
°C
Dew
Point
Rel
Hum
%
Delta-T
°C
Wind Press
QNH
hPa
Press
MSL
hPa
Rain
since 9 am
mm
Dir
 
Spd
km/h
Gust
km/h
Spd
kts
Gust
kts
19/11:30pm 12.1 9.9 5.3 63 3.3 E 6 7 3 4 1028.0 1025.1 0.0
19/11:00pm 12.1 9.1 4.3 59 3.7 E 9 11 5 6 1028.0 1025.1 0.0
19/10:30pm 13.1 9.7 4.0 54 4.4 E 11 13 6 7 1027.9 1025.0 0.0
19/10:00pm 14.6 11.4 2.8 45 5.6 SE 9 11 5 6 1028.0 1025.1 0.0
19/09:30pm 15.0 11.9 3.5 46 5.6 S 9 11 5 6 1027.8 1024.9 0.0
19/09:00pm 15.5 11.6 3.6 45 5.8 S 13 17 7 9 1027.4 1024.4 0.0
19/08:30pm 14.7 11.0 2.6 44 5.7 SSW 11 15 6 8 1027.0 1024.1 0.0
19/08:00pm 16.1 12.1 2.9 41 6.3 SW 13 15 7 8 1026.7 1023.7 0.0
19/07:30pm 16.3 12.3 2.7 40 6.5 WSW 13 15 7 8 1026.2 1023.3 0.0
19/07:00pm 17.7 13.6 2.5 36 7.3 WSW 13 13 7 7 1026.0 1023.1 0.0
19/06:30pm 20.1 16.5 2.9 32 8.5 WSW 11 15 6 8 1025.9 1022.9 0.0
19/06:00pm 21.3 17.2 2.1 28 9.4 WSW 13 19 7 10 1025.7 1022.7 0.0
19/05:30pm 21.6 18.2 1.8 27 9.7 SSW 9 17 5 9 1025.6 1022.6 0.0
19/05:00pm 21.9 18.4 1.0 25 10.1 SW 9 17 5 9 1025.6 1022.6 0.0
19/04:30pm 21.4 17.2 -0.6 23 10.3 S 11 17 6 9 1025.7 1022.7 0.0
19/04:00pm 21.9 16.9 1.5 26 9.9 SW 17 24 9 13 1025.8 1022.8 0.0
19/03:30pm 21.5 16.7 0.1 24 10.2 SW 15 20 8 11 1026.0 1023.1 0.0
19/03:00pm 20.7 16.5 -0.6 24 9.9 SW 11 20 6 11 1026.4 1023.4 0.0
19/02:30pm 20.8 17.4 2.1 29 9.2 SSW 9 17 5 9 1026.8 1023.9 0.0
19/02:00pm 20.4 17.4 2.3 30 8.8 NNW 7 13 4 7 1027.2 1024.3 0.0
19/01:30pm 20.4 14.7 0.8 27 9.4 W 20 24 11 13 1027.7 1024.8 0.0
19/01:00pm 19.4 15.5 3.2 34 8.0 SSW 13 26 7 14 1028.0 1025.1 0.0
19/12:30pm 19.4 15.2 3.6 35 7.9 SW 15 24 8 13 1028.4 1025.4 0.0
19/12:00pm 18.6 14.8 4.0 38 7.3 SW 13 20 7 11 1028.8 1025.9 0.0
19/11:30am 17.4 13.9 5.4 45 6.1 SW 13 20 7 11 1029.1 1026.2 0.0
19/11:00am 16.7 13.9 7.1 53 5.0 WSW 11 19 6 10 1029.5 1026.6 0.0
19/10:30am 15.7 13.1 5.9 52 5.0 W 9 15 5 8 1029.7 1026.8 0.0
19/10:00am 15.3 13.2 6.6 56 4.5 W 7 13 4 7 1029.8 1026.9 0.0
19/09:30am 14.5 12.6 6.8 60 4.0 W 6 11 3 6 1029.8 1026.9 0.0
19/09:00am 13.1 11.3 7.8 70 2.7 NNE 7 11 4 6 1029.6 1026.7 0.0
19/08:30am 11.8 9.6 7.9 77 2.0 E 9 13 5 7 1029.4 1026.5 0.0
19/08:00am 10.6 8.6 8.5 87 1.1 ENE 9 13 5 7 1029.2 1026.3 0.0
19/07:30am 9.3 7.0 9.0 98 0.2 ENE 11 13 6 7 1028.8 1025.9 0.0
19/07:00am 8.3 5.8 8.2 99 0.1 E 11 13 6 7 1028.5 1025.6 0.0
19/06:30am 6.7 3.8 6.6 99 0.0 E 11 13 6 7 1028.1 1025.2 0.0
19/06:00am 6.7 3.4 6.6 99 0.0 E 13 17 7 9 1027.6 1024.6 0.0
19/05:30am 7.4 4.3 7.3 99 0.0 E 13 15 7 8 1027.4 1024.4 0.0
19/05:23am 7.3 4.1 7.0 98 0.1 E 13 17 7 9 1027.4 1024.4 0.0
19/05:00am 7.8 5.1 7.5 98 0.1 E 11 15 6 8 1027.5 1024.5 0.0
19/04:30am 7.9 5.3 7.8 99 0.1 E 11 15 6 8 1027.5 1024.5 0.0
19/04:00am 7.9 4.9 7.8 99 0.1 E 13 17 7 9 1027.5 1024.5 0.0
19/03:30am 7.6 4.2 7.5 99 0.0 E 15 19 8 10 1027.5 1024.5 0.0
19/03:16am 7.5 4.0 7.4 99 0.0 E 15 19 8 10 1027.7 1024.8 0.0
19/03:00am 7.3 4.1 7.0 98 0.1 E 13 17 7 9 1027.8 1024.9 0.0
19/02:30am 7.5 4.8 7.2 98 0.1 E 11 15 6 8 1028.0 1025.1 0.0
19/02:00am 8.0 4.6 7.7 98 0.2 ESE 15 20 8 11 1028.1 1025.2 0.0
19/01:53am 8.1 4.4 7.8 98 0.2 E 17 20 9 11 1028.1 1025.2 0.0
19/01:30am 8.2 4.5 7.9 98 0.2 E 17 22 9 12 1028.4 1025.4 0.0
19/01:10am 8.2 4.5 7.9 98 0.2 E 17 20 9 11 1028.5 1025.6 0.0
19/01:00am 8.2 4.5 7.9 98 0.2 E 17 20 9 11 1028.6 1025.7 0.0
19/12:30am 8.3 4.6 8.0 98 0.2 E 17 20 9 11 1028.7 1025.8 0.0
19/12:00am 8.6 5.0 8.3 98 0.2 E 17 22 9 12 1028.9 1026.0 0.0
 
Date/Time
EDT
Temp
°C
App
Temp
°C
Dew
Point
Rel
Hum
%
Delta-T
°C
Wind Press
QNH
hPa
Press
MSL
hPa
Rain
since 9 am
mm
Dir
 
Spd
km/h
Gust
km/h
Spd
kts
Gust
kts
18/11:30pm 8.9 4.8 8.5 97 0.2 E 20 26 11 14 1029.1 1026.2 0.0
18/11:00pm 9.1 5.0 8.5 96 0.3 E 20 30 11 16 1028.9 1026.0 0.0
18/10:30pm 9.4 5.3 8.5 94 0.5 E 20 28 11 15 1029.2 1026.3 0.0
18/10:00pm 9.9 5.7 8.3 90 0.8 E 20 26 11 14 1028.8 1025.9 0.0
18/09:30pm 10.4 5.8 8.0 85 1.2 E 22 30 12 16 1028.7 1025.8 0.0
18/09:00pm 10.7 6.3 7.4 80 1.7 ENE 20 26 11 14 1028.5 1025.6 0.0
18/08:30pm 11.7 6.9 7.2 74 2.3 E 22 28 12 15 1028.1 1025.2 0.0
18/08:00pm 12.4 8.0 6.7 68 2.9 ENE 19 24 10 13 1027.9 1025.0 0.0

Other Formats:

Comma delimited format used in spreadsheet applications
http://www.bom.gov.au/fwo/IDN60801/IDN60801.95773.axf

JavaScript Object Notation format (JSON) in row-major order
http://www.bom.gov.au/fwo/IDN60801/IDN60801.95773.json